sensor_id;sensor_type;location;lat;lon;timestamp;pressure;altitude;pressure_sealevel;temperature;humidity
41254;BME280;26987;59.928;30.306;2024-02-15T00:02:26;102433.84;;;-7.28;100.00
41254;BME280;26987;59.928;30.306;2024-02-15T00:04:54;102432.84;;;-7.24;100.00
41254;BME280;26987;59.928;30.306;2024-02-15T00:07:23;102429.41;;;-7.25;100.00
41254;BME280;26987;59.928;30.306;2024-02-15T00:09:50;102417.56;;;-7.35;100.00
41254;BME280;26987;59.928;30.306;2024-02-15T00:12:20;102417.47;;;-7.32;100.00
41254;BME280;26987;59.928;30.306;2024-02-15T00:14:49;102431.44;;;-7.35;100.00
41254;BME280;26987;59.928;30.306;2024-02-15T00:17:19;102434.25;;;-7.42;100.00
41254;BME280;26987;59.928;30.306;2024-02-15T00:19:49;102411.13;;;-7.52;100.00
41254;BME280;26987;59.928;30.306;2024-02-15T00:22:17;102436.78;;;-7.39;100.00
41254;BME280;26987;59.928;30.306;2024-02-15T00:24:47;102432.09;;;-7.56;100.00
41254;BME280;26987;59.928;30.306;2024-02-15T00:27:17;102432.06;;;-7.55;100.00
41254;BME280;26987;59.928;30.306;2024-02-15T00:29:45;102416.78;;;-7.67;100.00
41254;BME280;26987;59.928;30.306;2024-02-15T00:32:14;102427.84;;;-7.59;100.00
41254;BME280;26987;59.928;30.306;2024-02-15T00:34:42;102427.75;;;-7.57;100.00
41254;BME280;26987;59.928;30.306;2024-02-15T00:37:10;102425.03;;;-7.53;100.00
41254;BME280;26987;59.928;30.306;2024-02-15T00:39:41;102420.91;;;-7.60;100.00
41254;BME280;26987;59.928;30.306;2024-02-15T00:42:09;102422.56;;;-7.57;100.00
41254;BME280;26987;59.928;30.306;2024-02-15T00:44:37;102425.94;;;-7.54;100.00
41254;BME280;26987;59.928;30.306;2024-02-15T00:47:05;102377.63;;;-7.94;100.00
41254;BME280;26987;59.928;30.306;2024-02-15T00:49:35;102431.06;;;-7.51;100.00
41254;BME280;26987;59.928;30.306;2024-02-15T00:52:04;102424.25;;;-7.55;100.00
41254;BME280;26987;59.928;30.306;2024-02-15T00:54:32;102416.28;;;-7.50;100.00
41254;BME280;26987;59.928;30.306;2024-02-15T00:57:00;102430.53;;;-7.33;100.00
41254;BME280;26987;59.928;30.306;2024-02-15T00:59:28;102423.69;;;-7.38;100.00
41254;BME280;26987;59.928;30.306;2024-02-15T01:01:56;102421.13;;;-7.39;100.00
41254;BME280;26987;59.928;30.306;2024-02-15T01:04:24;102416.13;;;-7.45;100.00
41254;BME280;26987;59.928;30.306;2024-02-15T01:06:54;102414.31;;;-7.43;100.00
41254;BME280;26987;59.928;30.306;2024-02-15T01:09:22;102408.50;;;-7.52;100.00
41254;BME280;26987;59.928;30.306;2024-02-15T01:11:52;102411.28;;;-7.58;100.00
41254;BME280;26987;59.928;30.306;2024-02-15T01:14:21;102367.22;;;-7.94;100.00
41254;BME280;26987;59.928;30.306;2024-02-15T01:16:49;102366.34;;;-7.95;100.00
41254;BME280;26987;59.928;30.306;2024-02-15T01:19:20;102410.75;;;-7.69;100.00
41254;BME280;26987;59.928;30.306;2024-02-15T01:21:48;102367.28;;;-7.98;100.00
41254;BME280;26987;59.928;30.306;2024-02-15T01:24:21;102238.19;;;-8.94;100.00
41254;BME280;26987;59.928;30.306;2024-02-15T01:26:55;102362.44;;;-8.10;100.00
41254;BME280;26987;59.928;30.306;2024-02-15T01:29:41;102282.47;;;-8.65;100.00
41254;BME280;26987;59.928;30.306;2024-02-15T01:32:10;102366.91;;;-8.14;100.00
41254;BME280;26987;59.928;30.306;2024-02-15T01:34:40;102363.44;;;-8.14;100.00
41254;BME280;26987;59.928;30.306;2024-02-15T01:37:09;102429.72;;;-7.64;100.00
41254;BME280;26987;59.928;30.306;2024-02-15T01:39:38;102411.84;;;-7.77;100.00
41254;BME280;26987;59.928;30.306;2024-02-15T01:42:07;102411.34;;;-7.90;100.00
41254;BME280;26987;59.928;30.306;2024-02-15T01:44:35;102389.94;;;-8.00;100.00
41254;BME280;26987;59.928;30.306;2024-02-15T01:47:17;102423.97;;;-7.76;100.00
41254;BME280;26987;59.928;30.306;2024-02-15T01:50:02;102292.09;;;-8.69;100.00
41254;BME280;26987;59.928;30.306;2024-02-15T01:52:45;102359.59;;;-8.32;100.00
41254;BME280;26987;59.928;30.306;2024-02-15T01:55:46;102282.69;;;-8.73;100.00
41254;BME280;26987;59.928;30.306;2024-02-15T01:58:39;102436.16;;;-7.76;100.00
41254;BME280;26987;59.928;30.306;2024-02-15T02:01:22;102375.69;;;-8.18;100.00
41254;BME280;26987;59.928;30.306;2024-02-15T02:03:51;102421.78;;;-7.90;100.00
41254;BME280;26987;59.928;30.306;2024-02-15T02:06:19;102374.06;;;-8.22;100.00
41254;BME280;26987;59.928;30.306;2024-02-15T02:08:47;102419.31;;;-7.94;100.00
41254;BME280;26987;59.928;30.306;2024-02-15T02:11:17;102415.88;;;-7.97;100.00
41254;BME280;26987;59.928;30.306;2024-02-15T02:13:46;102400.78;;;-8.15;100.00
41254;BME280;26987;59.928;30.306;2024-02-15T02:16:24;102432.97;;;-7.86;100.00
41254;BME280;26987;59.928;30.306;2024-02-15T02:18:54;102421.00;;;-7.93;100.00
41254;BME280;26987;59.928;30.306;2024-02-15T02:21:25;102417.84;;;-8.05;100.00
41254;BME280;26987;59.928;30.306;2024-02-15T02:23:56;102416.06;;;-8.03;100.00
41254;BME280;26987;59.928;30.306;2024-02-15T02:26:26;102428.84;;;-7.95;100.00
41254;BME280;26987;59.928;30.306;2024-02-15T02:28:54;102421.84;;;-7.93;100.00
41254;BME280;26987;59.928;30.306;2024-02-15T02:31:25;102412.47;;;-7.99;100.00
41254;BME280;26987;59.928;30.306;2024-02-15T02:33:54;102421.84;;;-7.93;100.00
41254;BME280;26987;59.928;30.306;2024-02-15T02:36:25;102432.84;;;-7.83;100.00
41254;BME280;26987;59.928;30.306;2024-02-15T02:38:53;102436.28;;;-7.81;100.00
41254;BME280;26987;59.928;30.306;2024-02-15T02:41:21;102414.22;;;-7.99;100.00
41254;BME280;26987;59.928;30.306;2024-02-15T02:43:51;102429.47;;;-7.85;100.00
41254;BME280;26987;59.928;30.306;2024-02-15T02:46:19;102426.97;;;-7.90;100.00
41254;BME280;26987;59.928;30.306;2024-02-15T02:48:47;102436.38;;;-7.84;100.00
41254;BME280;26987;59.928;30.306;2024-02-15T02:51:15;102321.72;;;-8.73;100.00
41254;BME280;26987;59.928;30.306;2024-02-15T02:53:43;102420.16;;;-7.94;100.00
41254;BME280;26987;59.928;30.306;2024-02-15T02:56:11;102419.47;;;-8.01;100.00
41254;BME280;26987;59.928;30.306;2024-02-15T02:58:39;102433.84;;;-7.87;100.00
41254;BME280;26987;59.928;30.306;2024-02-15T03:01:10;102421.00;;;-7.93;100.00
41254;BME280;26987;59.928;30.306;2024-02-15T03:03:39;102429.63;;;-7.91;100.00
41254;BME280;26987;59.928;30.306;2024-02-15T03:06:07;102437.22;;;-7.83;100.00
41254;BME280;26987;59.928;30.306;2024-02-15T03:08:35;102434.66;;;-7.85;100.00
41254;BME280;26987;59.928;30.306;2024-02-15T03:11:04;102432.16;;;-7.88;100.00
41254;BME280;26987;59.928;30.306;2024-02-15T03:13:31;102445.66;;;-7.75;100.00
41254;BME280;26987;59.928;30.306;2024-02-15T03:15:59;102430.97;;;-7.78;100.00
41254;BME280;26987;59.928;30.306;2024-02-15T03:18:29;102407.19;;;-7.95;100.00
41254;BME280;26987;59.928;30.306;2024-02-15T03:20:58;102447.47;;;-7.77;100.00
41254;BME280;26987;59.928;30.306;2024-02-15T03:23:26;102436.09;;;-7.75;100.00
41254;BME280;26987;59.928;30.306;2024-02-15T03:25:55;102422.63;;;-7.89;100.00
41254;BME280;26987;59.928;30.306;2024-02-15T03:28:23;102421.56;;;-7.82;100.00
41254;BME280;26987;59.928;30.306;2024-02-15T03:30:51;102414.00;;;-7.91;100.00
41254;BME280;26987;59.928;30.306;2024-02-15T03:33:19;102432.75;;;-7.80;100.00
41254;BME280;26987;59.928;30.306;2024-02-15T03:35:54;102426.59;;;-7.76;100.00
41254;BME280;26987;59.928;30.306;2024-02-15T03:38:27;102426.81;;;-7.83;100.00
41254;BME280;26987;59.928;30.306;2024-02-15T03:40:56;102435.47;;;-7.83;100.00
41254;BME280;26987;59.928;30.306;2024-02-15T03:43:28;102455.41;;;-7.82;100.00
41254;BME280;26987;59.928;30.306;2024-02-15T03:45:56;102456.47;;;-7.88;100.00
41254;BME280;26987;59.928;30.306;2024-02-15T03:48:25;102434.22;;;-8.00;100.00
41254;BME280;26987;59.928;30.306;2024-02-15T03:50:55;102455.47;;;-7.83;100.00
41254;BME280;26987;59.928;30.306;2024-02-15T03:53:24;102446.22;;;-7.94;100.00
41254;BME280;26987;59.928;30.306;2024-02-15T03:55:52;102460.06;;;-7.93;100.00
41254;BME280;26987;59.928;30.306;2024-02-15T03:58:20;102464.22;;;-7.86;100.00
41254;BME280;26987;59.928;30.306;2024-02-15T04:00:48;102454.69;;;-7.87;100.00
41254;BME280;26987;59.928;30.306;2024-02-15T04:03:16;102468.56;;;-7.87;100.00
41254;BME280;26987;59.928;30.306;2024-02-15T04:05:45;102427.44;;;-8.07;100.00
41254;BME280;26987;59.928;30.306;2024-02-15T04:08:14;102397.72;;;-8.30;100.00
41254;BME280;26987;59.928;30.306;2024-02-15T04:10:43;102464.31;;;-7.89;100.00
41254;BME280;26987;59.928;30.306;2024-02-15T04:13:12;102462.41;;;-7.84;100.00
41254;BME280;26987;59.928;30.306;2024-02-15T04:15:40;102464.31;;;-7.89;100.00
41254;BME280;26987;59.928;30.306;2024-02-15T04:18:10;102459.97;;;-7.90;100.00
41254;BME280;26987;59.928;30.306;2024-02-15T04:20:38;102450.34;;;-7.87;100.00
41254;BME280;26987;59.928;30.306;2024-02-15T04:23:11;102462.28;;;-7.79;100.00
41254;BME280;26987;59.928;30.306;2024-02-15T04:25:40;102461.47;;;-7.81;100.00
41254;BME280;26987;59.928;30.306;2024-02-15T04:28:10;102441.13;;;-7.99;100.00
41254;BME280;26987;59.928;30.306;2024-02-15T04:30:38;102452.97;;;-7.88;100.00
41254;BME280;26987;59.928;30.306;2024-02-15T04:33:07;102441.84;;;-7.93;100.00
41254;BME280;26987;59.928;30.306;2024-02-15T04:35:35;102456.50;;;-7.89;100.00
41254;BME280;26987;59.928;30.306;2024-02-15T04:38:03;102450.63;;;-7.98;100.00
41254;BME280;26987;59.928;30.306;2024-02-15T04:40:31;102452.63;;;-8.06;100.00
41254;BME280;26987;59.928;30.306;2024-02-15T04:43:01;102457.69;;;-8.01;100.00
41254;BME280;26987;59.928;30.306;2024-02-15T04:45:30;102455.22;;;-8.06;100.00
41254;BME280;26987;59.928;30.306;2024-02-15T04:48:06;102455.31;;;-8.09;100.00
41254;BME280;26987;59.928;30.306;2024-02-15T04:50:34;102458.78;;;-8.10;100.00
41254;BME280;26987;59.928;30.306;2024-02-15T04:53:02;102450.13;;;-8.11;100.00
41254;BME280;26987;59.928;30.306;2024-02-15T04:55:31;102435.63;;;-8.19;100.00
41254;BME280;26987;59.928;30.306;2024-02-15T04:58:01;102457.13;;;-8.13;100.00
41254;BME280;26987;59.928;30.306;2024-02-15T05:00:30;102459.75;;;-8.14;100.00
41254;BME280;26987;59.928;30.306;2024-02-15T05:02:58;102465.97;;;-8.18;100.00
41254;BME280;26987;59.928;30.306;2024-02-15T05:05:26;102470.34;;;-8.20;100.00
41254;BME280;26987;59.928;30.306;2024-02-15T05:07:55;102457.56;;;-8.28;100.00
41254;BME280;26987;59.928;30.306;2024-02-15T05:10:23;102463.41;;;-8.20;100.00
41254;BME280;26987;59.928;30.306;2024-02-15T05:12:51;102463.34;;;-8.18;100.00
41254;BME280;26987;59.928;30.306;2024-02-15T05:15:21;102477.09;;;-8.13;100.00
41254;BME280;26987;59.928;30.306;2024-02-15T05:17:51;102452.25;;;-8.25;100.00
41254;BME280;26987;59.928;30.306;2024-02-15T05:20:20;102454.16;;;-8.32;100.00
41254;BME280;26987;59.928;30.306;2024-02-15T05:22:48;102477.94;;;-8.13;100.00
41254;BME280;26987;59.928;30.306;2024-02-15T05:25:15;102480.34;;;-8.05;100.00
41254;BME280;26987;59.928;30.306;2024-02-15T05:27:48;102431.59;;;-8.31;100.00
41254;BME280;26987;59.928;30.306;2024-02-15T05:30:21;102478.50;;;-8.00;100.00
41254;BME280;26987;59.928;30.306;2024-02-15T05:32:49;102482.91;;;-8.03;100.00
41254;BME280;26987;59.928;30.306;2024-02-15T05:35:19;102470.88;;;-8.07;100.00
41254;BME280;26987;59.928;30.306;2024-02-15T05:37:46;102485.31;;;-7.95;100.00
41254;BME280;26987;59.928;30.306;2024-02-15T05:40:14;102440.84;;;-8.19;100.00
41254;BME280;26987;59.928;30.306;2024-02-15T05:42:44;102487.88;;;-7.94;100.00
41254;BME280;26987;59.928;30.306;2024-02-15T05:45:30;102488.53;;;-7.87;100.00
41254;BME280;26987;59.928;30.306;2024-02-15T05:48:00;102495.47;;;-7.86;100.00
41254;BME280;26987;59.928;30.306;2024-02-15T05:50:28;102491.28;;;-7.92;100.00
41254;BME280;26987;59.928;30.306;2024-02-15T05:52:57;102493.84;;;-7.90;100.00
41254;BME280;26987;59.928;30.306;2024-02-15T05:55:25;102505.91;;;-7.86;100.00
41254;BME280;26987;59.928;30.306;2024-02-15T05:57:57;102493.66;;;-7.84;100.00
41254;BME280;26987;59.928;30.306;2024-02-15T06:00:25;102503.06;;;-7.78;100.00
41254;BME280;26987;59.928;30.306;2024-02-15T06:02:54;102512.47;;;-7.73;100.00
41254;BME280;26987;59.928;30.306;2024-02-15T06:05:22;102501.94;;;-7.69;100.00
41254;BME280;26987;59.928;30.306;2024-02-15T06:07:50;102499.53;;;-7.76;100.00
41254;BME280;26987;59.928;30.306;2024-02-15T06:10:18;102503.75;;;-7.72;100.00
41254;BME280;26987;59.928;30.306;2024-02-15T06:12:46;102501.94;;;-7.69;100.00
41254;BME280;26987;59.928;30.306;2024-02-15T06:15:14;102487.44;;;-7.78;100.00
41254;BME280;26987;59.928;30.306;2024-02-15T06:17:42;102460.25;;;-8.00;100.00
41254;BME280;26987;59.928;30.306;2024-02-15T06:20:13;102497.81;;;-7.77;100.00
41254;BME280;26987;59.928;30.306;2024-02-15T06:22:56;102508.16;;;-7.74;100.00
41254;BME280;26987;59.928;30.306;2024-02-15T06:25:23;102487.44;;;-7.78;100.00
41254;BME280;26987;59.928;30.306;2024-02-15T06:27:51;102503.59;;;-7.65;100.00
41254;BME280;26987;59.928;30.306;2024-02-15T06:30:24;102485.56;;;-7.73;100.00
41254;BME280;26987;59.928;30.306;2024-02-15T06:33:10;102500.25;;;-7.70;100.00
41254;BME280;26987;59.928;30.306;2024-02-15T06:35:56;102493.63;;;-7.82;100.00
41254;BME280;26987;59.928;30.306;2024-02-15T06:38:42;102501.94;;;-7.69;100.00
41254;BME280;26987;59.928;30.306;2024-02-15T06:41:27;102517.97;;;-7.52;100.00
41254;BME280;26987;59.928;30.306;2024-02-15T06:43:55;102468.13;;;-7.71;100.00
41254;BME280;26987;59.928;30.306;2024-02-15T06:46:23;102514.97;;;-7.39;100.00
41254;BME280;26987;59.928;30.306;2024-02-15T06:48:51;102510.41;;;-7.31;100.00
41254;BME280;26987;59.928;30.306;2024-02-15T06:51:20;102496.66;;;-7.36;100.00
41254;BME280;26987;59.928;30.306;2024-02-15T06:53:50;102503.50;;;-7.32;100.00
41254;BME280;26987;59.928;30.306;2024-02-15T06:56:17;102470.25;;;-7.54;100.00
41254;BME280;26987;59.928;30.306;2024-02-15T06:58:46;102471.66;;;-7.43;100.00
41254;BME280;26987;59.928;30.306;2024-02-15T07:01:15;102515.00;;;-7.11;100.00
41254;BME280;26987;59.928;30.306;2024-02-15T07:03:43;102508.00;;;-7.09;100.00
41254;BME280;26987;59.928;30.306;2024-02-15T07:06:12;102521.22;;;-6.86;100.00
41254;BME280;26987;59.928;30.306;2024-02-15T07:08:42;102521.41;;;-6.92;100.00
41254;BME280;26987;59.928;30.306;2024-02-15T07:11:10;102507.78;;;-7.01;100.00
41254;BME280;26987;59.928;30.306;2024-02-15T07:13:38;102532.84;;;-6.97;100.00
41254;BME280;26987;59.928;30.306;2024-02-15T07:16:07;102525.97;;;-6.99;100.00
41254;BME280;26987;59.928;30.306;2024-02-15T07:18:35;102521.75;;;-7.03;100.00
41254;BME280;26987;59.928;30.306;2024-02-15T07:21:03;102533.03;;;-7.03;100.00
41254;BME280;26987;59.928;30.306;2024-02-15T07:23:37;102521.91;;;-7.08;100.00
41254;BME280;26987;59.928;30.306;2024-02-15T07:26:06;102528.78;;;-7.05;100.00
41254;BME280;26987;59.928;30.306;2024-02-15T07:28:34;102532.94;;;-7.00;100.00
41254;BME280;26987;59.928;30.306;2024-02-15T07:31:03;102528.53;;;-6.98;100.00
41254;BME280;26987;59.928;30.306;2024-02-15T07:33:31;102522.38;;;-6.95;100.00
41254;BME280;26987;59.928;30.306;2024-02-15T07:35:58;102509.38;;;-6.97;100.00
41254;BME280;26987;59.928;30.306;2024-02-15T07:38:27;102519.47;;;-6.86;100.00
41254;BME280;26987;59.928;30.306;2024-02-15T07:40:56;102518.59;;;-6.86;100.00
41254;BME280;26987;59.928;30.306;2024-02-15T07:43:25;102493.03;;;-7.02;100.00
41254;BME280;26987;59.928;30.306;2024-02-15T07:45:54;102519.38;;;-6.82;100.00
41254;BME280;26987;59.928;30.306;2024-02-15T07:48:21;102529.88;;;-6.84;100.00
41254;BME280;26987;59.928;30.306;2024-02-15T07:50:49;102530.59;;;-6.80;100.00
41254;BME280;26987;59.928;30.306;2024-02-15T07:53:17;102527.91;;;-6.77;100.00
41254;BME280;26987;59.928;30.306;2024-02-15T07:55:46;102526.06;;;-6.74;100.00
41254;BME280;26987;59.928;30.306;2024-02-15T07:58:14;102527.22;;;-6.82;100.00
41254;BME280;26987;59.928;30.306;2024-02-15T08:00:46;102528.19;;;-6.87;100.00
41254;BME280;26987;59.928;30.306;2024-02-15T08:03:14;102509.50;;;-7.01;100.00
41254;BME280;26987;59.928;30.306;2024-02-15T08:05:42;102524.69;;;-6.86;100.00
41254;BME280;26987;59.928;30.306;2024-02-15T08:08:10;102529.41;;;-6.70;100.00
41254;BME280;26987;59.928;30.306;2024-02-15T08:10:38;102520.75;;;-6.71;100.00
41254;BME280;26987;59.928;30.306;2024-02-15T08:13:06;102528.28;;;-6.61;100.00
41254;BME280;26987;59.928;30.306;2024-02-15T08:15:35;102542.13;;;-6.59;100.00
41254;BME280;26987;59.928;30.306;2024-02-15T08:18:04;102544.81;;;-6.62;100.00
41254;BME280;26987;59.928;30.306;2024-02-15T08:20:35;102543.28;;;-6.68;100.00
41254;BME280;26987;59.928;30.306;2024-02-15T08:23:03;102522.31;;;-6.93;100.00
41254;BME280;26987;59.928;30.306;2024-02-15T08:25:31;102535.19;;;-6.87;100.00
41254;BME280;26987;59.928;30.306;2024-02-15T08:27:59;102539.09;;;-6.74;100.00
41254;BME280;26987;59.928;30.306;2024-02-15T08:30:31;102527.22;;;-6.82;100.00
41254;BME280;26987;59.928;30.306;2024-02-15T08:32:59;102543.28;;;-6.68;100.00
41254;BME280;26987;59.928;30.306;2024-02-15T08:35:28;102532.38;;;-6.81;100.00
41254;BME280;26987;59.928;30.306;2024-02-15T08:37:56;102544.22;;;-6.71;100.00
41254;BME280;26987;59.928;30.306;2024-02-15T08:40:24;102550.09;;;-6.64;100.00
41254;BME280;26987;59.928;30.306;2024-02-15T08:42:52;102553.56;;;-6.63;100.00
41254;BME280;26987;59.928;30.306;2024-02-15T08:45:20;102548.34;;;-6.63;100.00
41254;BME280;26987;59.928;30.306;2024-02-15T08:47:49;102550.94;;;-6.63;100.00
41254;BME280;26987;59.928;30.306;2024-02-15T08:50:19;102534.25;;;-6.86;100.00
41254;BME280;26987;59.928;30.306;2024-02-15T08:52:51;102551.06;;;-6.66;100.00
41254;BME280;26987;59.928;30.306;2024-02-15T08:55:19;102547.25;;;-6.56;100.00
41254;BME280;26987;59.928;30.306;2024-02-15T08:57:50;102529.44;;;-6.72;100.00
41254;BME280;26987;59.928;30.306;2024-02-15T09:00:18;102539.78;;;-6.68;100.00
41254;BME280;26987;59.928;30.306;2024-02-15T09:02:46;102516.41;;;-6.72;100.00
41254;BME280;26987;59.928;30.306;2024-02-15T09:05:15;102547.03;;;-6.50;100.00
41254;BME280;26987;59.928;30.306;2024-02-15T09:07:44;102530.47;;;-6.49;100.00
41254;BME280;26987;59.928;30.306;2024-02-15T09:10:15;102555.88;;;-6.27;100.00
41254;BME280;26987;59.928;30.306;2024-02-15T09:12:44;102547.06;;;-6.24;100.00
41254;BME280;26987;59.928;30.306;2024-02-15T09:15:13;102558.19;;;-6.17;100.00
41254;BME280;26987;59.928;30.306;2024-02-15T09:17:41;102565.09;;;-6.16;100.00
41254;BME280;26987;59.928;30.306;2024-02-15T09:20:11;102569.31;;;-6.12;100.00
41254;BME280;26987;59.928;30.306;2024-02-15T09:22:42;102567.66;;;-6.15;100.00
41254;BME280;26987;59.928;30.306;2024-02-15T09:25:12;102567.09;;;-6.25;100.00
41254;BME280;26987;59.928;30.306;2024-02-15T09:27:42;102566.28;;;-6.25;100.00
41254;BME280;26987;59.928;30.306;2024-02-15T09:30:13;102565.31;;;-6.23;100.00
41254;BME280;26987;59.928;30.306;2024-02-15T09:32:42;102565.88;;;-6.14;100.00
41254;BME280;26987;59.928;30.306;2024-02-15T09:35:10;102539.09;;;-6.19;100.00
41254;BME280;26987;59.928;30.306;2024-02-15T09:37:45;102567.97;;;-5.99;100.00
41254;BME280;26987;59.928;30.306;2024-02-15T09:40:15;102572.16;;;-5.95;100.00
41254;BME280;26987;59.928;30.306;2024-02-15T09:42:47;102575.16;;;-5.80;100.00
41254;BME280;26987;59.928;30.306;2024-02-15T09:45:15;102568.41;;;-5.87;100.00
41254;BME280;26987;59.928;30.306;2024-02-15T09:47:44;102560.72;;;-5.90;100.00
41254;BME280;26987;59.928;30.306;2024-02-15T09:50:13;102557.09;;;-5.86;100.00
41254;BME280;26987;59.928;30.306;2024-02-15T09:52:44;102544.75;;;-5.83;100.00
41254;BME280;26987;59.928;30.306;2024-02-15T09:55:13;102570.56;;;-5.73;100.00
41254;BME280;26987;59.928;30.306;2024-02-15T09:57:44;102560.38;;;-5.81;100.00
41254;BME280;26987;59.928;30.306;2024-02-15T10:00:15;102561.56;;;-5.90;100.00
41254;BME280;26987;59.928;30.306;2024-02-15T10:02:44;102553.31;;;-6.03;100.00
41254;BME280;26987;59.928;30.306;2024-02-15T10:05:13;102570.41;;;-5.94;100.00
41254;BME280;26987;59.928;30.306;2024-02-15T10:07:41;102562.31;;;-5.86;100.00
41254;BME280;26987;59.928;30.306;2024-02-15T10:10:20;102551.84;;;-5.86;100.00
41254;BME280;26987;59.928;30.306;2024-02-15T10:12:49;102511.91;;;-6.14;100.00
41254;BME280;26987;59.928;30.306;2024-02-15T10:15:32;102562.66;;;-5.72;100.00
41254;BME280;26987;59.928;30.306;2024-02-15T10:18:02;102567.44;;;-5.83;100.00
41254;BME280;26987;59.928;30.306;2024-02-15T10:20:30;102558.78;;;-5.85;100.00
41254;BME280;26987;59.928;30.306;2024-02-15T10:23:10;102566.19;;;-5.73;100.00
41254;BME280;26987;59.928;30.306;2024-02-15T10:25:38;102559.59;;;-5.83;100.00
41254;BME280;26987;59.928;30.306;2024-02-15T10:28:07;102569.03;;;-5.79;100.00
41254;BME280;26987;59.928;30.306;2024-02-15T10:30:38;102563.59;;;-5.73;100.00
41254;BME280;26987;59.928;30.306;2024-02-15T10:33:06;102566.66;;;-5.87;100.00
41254;BME280;26987;59.928;30.306;2024-02-15T10:35:35;102553.56;;;-5.85;100.00
41254;BME280;26987;59.928;30.306;2024-02-15T10:38:08;102563.31;;;-5.65;100.00
41254;BME280;26987;59.928;30.306;2024-02-15T10:40:36;102556.09;;;-5.58;100.00
41254;BME280;26987;59.928;30.306;2024-02-15T10:43:05;102564.53;;;-5.50;100.00
41254;BME280;26987;59.928;30.306;2024-02-15T10:45:36;102567.47;;;-5.35;100.00
41254;BME280;26987;59.928;30.306;2024-02-15T10:48:07;102538.97;;;-5.43;100.00
41254;BME280;26987;59.928;30.306;2024-02-15T10:50:42;102551.78;;;-5.35;100.00
41254;BME280;26987;59.928;30.306;2024-02-15T10:53:22;102554.38;;;-5.35;100.00
41254;BME280;26987;59.928;30.306;2024-02-15T10:55:59;102551.13;;;-5.42;100.00
41254;BME280;26987;59.928;30.306;2024-02-15T10:58:33;102527.66;;;-5.67;100.00
41254;BME280;26987;59.928;30.306;2024-02-15T11:01:10;102501.19;;;-5.82;100.00
41254;BME280;26987;59.928;30.306;2024-02-15T11:03:47;102547.03;;;-5.49;100.00
41254;BME280;26987;59.928;30.306;2024-02-15T11:06:18;102554.00;;;-5.48;100.00
41254;BME280;26987;59.928;30.306;2024-02-15T11:08:48;102546.28;;;-5.51;100.00
41254;BME280;26987;59.928;30.306;2024-02-15T11:11:17;102558.69;;;-5.34;100.00
41254;BME280;26987;59.928;30.306;2024-02-15T11:13:46;102564.03;;;-5.37;100.00
41254;BME280;26987;59.928;30.306;2024-02-15T11:19:43;102558.47;;;-5.28;100.00
41254;BME280;26987;59.928;30.306;2024-02-15T11:22:13;102559.41;;;-5.29;100.00
41254;BME280;26987;59.928;30.306;2024-02-15T11:24:49;102561.03;;;-5.26;100.00
41254;BME280;26987;59.928;30.306;2024-02-15T11:27:25;102559.06;;;-5.20;100.00
41254;BME280;26987;59.928;30.306;2024-02-15T11:29:54;102565.97;;;-5.19;100.00
41254;BME280;26987;59.928;30.306;2024-02-15T11:32:38;102550.06;;;-5.12;100.00
41254;BME280;26987;59.928;30.306;2024-02-15T11:35:11;102557.53;;;-5.03;100.00
41254;BME280;26987;59.928;30.306;2024-02-15T11:37:54;102555.38;;;-4.91;100.00
41254;BME280;26987;59.928;30.306;2024-02-15T11:40:23;102557.41;;;-5.00;100.00
41254;BME280;26987;59.928;30.306;2024-02-15T11:42:52;102549.81;;;-5.06;100.00
41254;BME280;26987;59.928;30.306;2024-02-15T11:45:21;102556.00;;;-5.09;100.00
41254;BME280;26987;59.928;30.306;2024-02-15T11:47:50;102565.69;;;-5.11;100.00
41254;BME280;26987;59.928;30.306;2024-02-15T11:50:20;102555.34;;;-5.14;100.00
41254;BME280;26987;59.928;30.306;2024-02-15T11:52:49;102557.44;;;-5.24;100.00
41254;BME280;26987;59.928;30.306;2024-02-15T11:55:21;102559.13;;;-5.21;100.00
41254;BME280;26987;59.928;30.306;2024-02-15T11:57:56;102553.94;;;-5.23;100.00
41254;BME280;26987;59.928;30.306;2024-02-15T12:00:32;102564.94;;;-5.14;100.00
41254;BME280;26987;59.928;30.306;2024-02-15T12:03:17;102560.84;;;-4.98;100.00
41254;BME280;26987;59.928;30.306;2024-02-15T12:06:18;102556.06;;;-5.10;100.00
41254;BME280;26987;59.928;30.306;2024-02-15T12:09:03;102569.94;;;-5.08;100.00
41254;BME280;26987;59.928;30.306;2024-02-15T12:11:57;102568.84;;;-5.02;100.00
41254;BME280;26987;59.928;30.306;2024-02-15T12:14:42;102545.25;;;-5.01;100.00
41254;BME280;26987;59.928;30.306;2024-02-15T12:17:27;102573.28;;;-4.81;100.00
41254;BME280;26987;59.928;30.306;2024-02-15T12:20:13;102572.81;;;-4.70;100.00
41254;BME280;26987;59.928;30.306;2024-02-15T12:22:44;102564.06;;;-4.69;100.00
41254;BME280;26987;59.928;30.306;2024-02-15T12:25:14;102567.53;;;-4.68;100.00
41254;BME280;26987;59.928;30.306;2024-02-15T12:27:43;102572.88;;;-4.71;100.00
41254;BME280;26987;59.928;30.306;2024-02-15T12:30:13;102559.13;;;-4.76;100.00
41254;BME280;26987;59.928;30.306;2024-02-15T12:32:41;102566.53;;;-4.88;100.00
41254;BME280;26987;59.928;30.306;2024-02-15T12:35:10;102568.88;;;-4.80;100.00
41254;BME280;26987;59.928;30.306;2024-02-15T12:37:44;102564.50;;;-4.79;100.00
41254;BME280;26987;59.928;30.306;2024-02-15T12:40:12;102553.56;;;-4.91;100.00
41254;BME280;26987;59.928;30.306;2024-02-15T12:42:42;102558.16;;;-4.96;100.00
41254;BME280;26987;59.928;30.306;2024-02-15T12:45:18;102561.19;;;-4.85;100.00
41254;BME280;26987;59.928;30.306;2024-02-15T12:47:47;102562.53;;;-4.97;100.00
41254;BME280;26987;59.928;30.306;2024-02-15T12:50:18;102565.09;;;-4.95;100.00
41254;BME280;26987;59.928;30.306;2024-02-15T12:52:48;102569.59;;;-4.99;100.00